createdAt,value
2023-05-11T00:07:32.216Z,3.33
2023-05-11T00:17:34.325Z,3.17
2023-05-11T00:27:36.657Z,2.77
2023-05-11T00:37:41.000Z,2.87
2023-05-11T00:47:43.230Z,3.20
2023-05-11T00:57:49.497Z,2.90
2023-05-11T01:08:02.677Z,3.17
2023-05-11T01:18:19.798Z,2.90
2023-05-11T01:28:41.430Z,2.67
2023-05-11T01:38:50.440Z,3.00
2023-05-11T01:48:53.995Z,3.03
2023-05-11T01:58:59.905Z,2.60
2023-05-11T02:09:07.921Z,2.73
2023-05-11T02:19:12.694Z,2.97
2023-05-11T02:29:17.647Z,2.73
2023-05-11T02:39:22.701Z,3.00
2023-05-11T02:49:25.878Z,2.57
2023-05-11T02:59:31.408Z,3.03
2023-05-11T03:09:34.488Z,2.93
2023-05-11T03:19:39.524Z,2.97
2023-05-11T03:29:45.589Z,2.80
2023-05-11T03:39:53.283Z,2.57
2023-05-11T03:49:57.503Z,2.95
2023-05-11T04:00:03.013Z,3.03
2023-05-11T04:10:09.017Z,2.70
2023-05-11T04:20:14.347Z,3.53
2023-05-11T04:30:24.668Z,3.47
2023-05-11T04:40:29.199Z,3.50
2023-05-11T04:50:31.402Z,3.10
2023-05-11T05:00:36.914Z,3.67
2023-05-11T05:10:39.416Z,3.33
2023-05-11T05:20:41.574Z,2.78
2023-05-11T05:30:46.228Z,2.72
2023-05-11T05:40:52.779Z,2.85
2023-05-11T05:51:02.392Z,2.80
2023-05-11T06:01:10.374Z,2.88
2023-05-11T06:11:16.274Z,2.50
2023-05-11T06:21:20.964Z,2.50
2023-05-11T06:31:24.720Z,2.33
2023-05-11T06:41:29.779Z,2.20
2023-05-11T06:51:37.242Z,1.92
2023-05-11T07:01:44.107Z,2.00
2023-05-11T07:11:46.307Z,1.80
2023-05-11T07:21:49.454Z,2.05
2023-05-11T07:31:51.901Z,2.20
2023-05-11T07:41:58.781Z,1.95
2023-05-11T07:52:00.998Z,2.17
2023-05-11T08:02:04.862Z,1.80
2023-05-11T08:12:12.475Z,1.58
2023-05-11T08:22:19.650Z,1.30
2023-05-11T08:32:27.537Z,2.00
2023-05-11T08:42:34.064Z,1.77
2023-05-11T08:52:38.664Z,1.73
2023-05-11T09:02:40.944Z,1.58
2023-05-11T09:12:43.132Z,2.17
2023-05-11T09:22:48.392Z,1.95
2023-05-11T09:32:52.824Z,1.33
2023-05-11T09:42:57.445Z,1.95
2023-05-11T09:52:59.758Z,1.10
2023-05-11T10:03:07.890Z,1.73
2023-05-11T10:13:15.907Z,1.90
2023-05-11T10:23:21.518Z,1.73
2023-05-11T10:33:27.166Z,1.52
2023-05-11T10:43:38.198Z,2.03
2023-05-11T10:54:02.962Z,1.55
2023-05-11T11:04:14.004Z,1.85
2023-05-11T11:14:19.477Z,1.73
2023-05-11T11:24:43.219Z,1.88
2023-05-11T11:34:46.895Z,2.47
2023-05-11T11:44:51.642Z,2.25
2023-05-11T11:54:59.951Z,2.10
2023-05-11T12:05:18.948Z,1.50
2023-05-11T12:15:35.094Z,1.70
2023-05-11T12:25:37.270Z,1.80
2023-05-11T12:35:44.020Z,1.90
2023-05-11T12:45:47.032Z,2.10
2023-05-11T12:55:59.278Z,1.65
2023-05-11T13:06:09.227Z,1.83
2023-05-11T13:16:27.307Z,2.25
2023-05-11T13:26:30.875Z,1.90
2023-05-11T13:36:35.454Z,1.50
2023-05-11T13:46:37.712Z,1.80
2023-05-11T13:56:40.105Z,1.88
2023-05-11T14:06:43.697Z,1.52
2023-05-11T14:16:45.874Z,1.90
2023-05-11T14:26:50.552Z,1.90
2023-05-11T14:36:52.736Z,1.85
2023-05-11T14:46:59.238Z,2.20
2023-05-11T14:57:04.734Z,1.70
2023-05-11T15:07:06.855Z,1.60
2023-05-11T15:17:09.083Z,2.08
2023-05-11T15:27:11.484Z,1.75
2023-05-11T15:37:13.709Z,1.63
2023-05-11T15:47:16.654Z,1.60
2023-05-11T15:57:18.808Z,1.88
2023-05-11T16:07:20.969Z,1.60
2023-05-11T16:17:28.470Z,2.10
2023-05-11T16:27:32.881Z,2.00
2023-05-11T16:37:35.004Z,1.80
2023-05-11T16:47:39.511Z,2.42
2023-05-11T16:57:44.210Z,1.85
2023-05-11T17:07:51.901Z,2.22
2023-05-11T17:17:54.260Z,1.95
2023-05-11T17:28:00.389Z,2.08
2023-05-11T17:38:03.689Z,1.85
2023-05-11T17:48:06.058Z,1.48
2023-05-11T17:58:10.819Z,2.05
2023-05-11T18:08:14.446Z,1.83
2023-05-11T18:18:19.915Z,2.65
2023-05-11T18:28:30.545Z,2.92
2023-05-11T18:38:34.889Z,2.40
2023-05-11T18:48:41.784Z,2.38
2023-05-11T18:58:49.650Z,2.38
2023-05-11T19:08:55.790Z,2.67
2023-05-11T19:18:58.614Z,3.05
2023-05-11T19:29:00.911Z,2.55
2023-05-11T19:39:04.558Z,3.17
2023-05-11T19:49:06.695Z,3.42
2023-05-11T19:59:08.952Z,3.97
2023-05-11T20:09:14.704Z,3.88
2023-05-11T20:19:19.248Z,3.53
2023-05-11T20:29:23.580Z,3.80
2023-05-11T20:39:30.896Z,4.07
2023-05-11T20:49:39.308Z,3.65
2023-05-11T21:09:46.797Z,3.60
2023-05-11T21:19:51.311Z,4.82
2023-05-11T21:29:56.841Z,3.33
2023-05-11T21:40:02.664Z,3.87
2023-05-11T21:50:08.900Z,3.63
2023-05-11T22:00:18.800Z,3.28
2023-05-11T22:10:24.851Z,3.70
2023-05-11T22:20:31.916Z,3.58
2023-05-11T22:30:37.807Z,3.58
2023-05-11T22:40:42.326Z,4.03
2023-05-11T22:50:47.925Z,3.78
2023-05-11T23:00:54.841Z,3.05
2023-05-11T23:11:00.037Z,3.83
2023-05-11T23:21:07.364Z,3.10
2023-05-11T23:31:09.563Z,3.53
2023-05-11T23:41:11.806Z,3.40
2023-05-11T23:51:18.205Z,2.60
